Time;durP1;ratioP1;P1;durP2;ratioP2;P2;SDS_P1;SDS_P2;PMS_P1;PMS_P2;Temp;Humidity;BMP_temperature;BMP_pressure;BME280_temperature;BME280_humidity;BME280_pressure;Samples;Min_cycle;Max_cycle;Signal;HPM_P1;HPM_P2
2020/12/31 00:02:04;;;;;;;6.28;4.88;;;6.40;84.80;;;;;;5094574;28;20024;-74
2020/12/31 00:04:30;;;;;;;7.18;4.97;;;6.40;84.60;;;;;;5094341;28;20051;-73
2020/12/31 00:06:55;;;;;;;5.85;4.47;;;6.40;84.60;;;;;;5092976;28;20020;-74
2020/12/31 00:09:23;;;;;;;7.75;4.72;;;6.40;84.50;;;;;;5094572;28;20054;-74
2020/12/31 00:11:49;;;;;;;6.07;4.20;;;6.40;84.50;;;;;;5094481;28;20039;-73
2020/12/31 00:14:14;;;;;;;6.65;4.22;;;6.40;84.40;;;;;;5094427;28;20032;-73
2020/12/31 00:16:40;;;;;;;5.38;4.18;;;6.30;84.40;;;;;;5093022;28;20043;-73
2020/12/31 00:19:06;;;;;;;6.00;4.72;;;6.30;84.50;;;;;;5092908;28;20032;-73
2020/12/31 00:21:31;;;;;;;5.95;4.55;;;6.30;84.50;;;;;;5092863;28;20035;-73
2020/12/31 00:23:57;;;;;;;5.57;4.53;;;6.30;84.40;;;;;;5092902;28;20539;-73
2020/12/31 00:26:23;;;;;;;6.25;4.40;;;6.30;84.50;;;;;;5094245;28;20059;-74
2020/12/31 00:28:48;;;;;;;7.05;4.22;;;6.40;84.50;;;;;;5092794;28;20032;-73
2020/12/31 00:31:14;;;;;;;4.97;4.10;;;6.40;84.50;;;;;;5093294;28;20035;-73
2020/12/31 00:33:40;;;;;;;5.57;3.70;;;6.40;85.00;;;;;;5094145;28;20028;-73
2020/12/31 00:36:06;;;;;;;4.47;3.70;;;6.40;84.40;;;;;;5092689;28;20035;-73
2020/12/31 00:38:31;;;;;;;4.40;3.88;;;6.40;84.40;;;;;;5092626;28;20020;-73
2020/12/31 00:40:59;;;;;;;4.72;3.65;;;6.40;84.30;;;;;;5092494;28;20031;-73
2020/12/31 00:43:25;;;;;;;4.45;3.53;;;6.40;84.40;;;;;;5093978;28;20027;-73
2020/12/31 00:45:51;;;;;;;5.38;3.95;;;6.40;84.30;;;;;;5093780;28;20027;-73
2020/12/31 00:48:16;;;;;;;5.32;3.72;;;6.30;84.40;;;;;;5093729;28;20468;-73
2020/12/31 00:50:42;;;;;;;6.13;3.72;;;6.40;84.40;;;;;;5093603;28;20035;-73
2020/12/31 00:53:08;;;;;;;5.03;3.70;;;6.40;84.20;;;;;;5092157;28;20094;-73
2020/12/31 00:55:33;;;;;;;4.13;3.30;;;6.40;84.30;;;;;;5093609;28;20028;-73
2020/12/31 00:57:59;;;;;;;4.40;3.38;;;6.40;84.90;;;;;;5092248;28;20456;-73
2020/12/31 01:00:25;;;;;;;5.90;3.75;;;6.30;84.20;;;;;;5093726;28;20141;-73
2020/12/31 01:02:51;;;;;;;4.90;3.50;;;6.30;84.30;;;;;;5093545;28;20466;-73
2020/12/31 01:05:17;;;;;;;5.13;3.60;;;6.30;84.30;;;;;;5093538;28;20040;-73
2020/12/31 01:07:42;;;;;;;6.38;3.50;;;6.40;84.40;;;;;;5093679;28;20104;-73
2020/12/31 01:10:09;;;;;;;7.70;4.00;;;6.40;84.40;;;;;;5092196;28;20455;-73
2020/12/31 01:12:35;;;;;;;5.00;2.90;;;6.40;84.30;;;;;;5092488;28;20024;-74
2020/12/31 01:15:03;;;;;;;4.68;3.67;;;6.40;84.30;;;;;;5093289;28;20040;-73
2020/12/31 01:17:29;;;;;;;4.50;3.35;;;6.40;84.40;;;;;;5091922;28;20040;-74
2020/12/31 01:19:54;;;;;;;4.45;2.85;;;6.40;84.30;;;;;;5093150;28;20038;-73
2020/12/31 01:22:20;;;;;;;4.15;2.85;;;6.40;84.30;;;;;;5093009;28;20034;-74
2020/12/31 01:24:46;;;;;;;5.32;3.08;;;6.40;84.40;;;;;;5091619;28;20020;-72
2020/12/31 01:27:13;;;;;;;3.10;2.75;;;6.40;84.40;;;;;;5091498;28;20382;-73
2020/12/31 01:29:40;;;;;;;4.30;2.83;;;6.30;84.20;;;;;;5092897;28;20589;-74
2020/12/31 01:32:05;;;;;;;3.90;2.92;;;6.30;84.20;;;;;;5092972;28;20036;-73
2020/12/31 01:34:31;;;;;;;5.25;3.50;;;6.30;84.20;;;;;;5091387;28;20115;-74
2020/12/31 01:36:57;;;;;;;5.05;3.47;;;6.30;84.20;;;;;;5092697;28;20111;-74
2020/12/31 01:39:23;;;;;;;5.32;3.28;;;6.30;84.30;;;;;;5092604;28;20035;-73
2020/12/31 01:41:49;;;;;;;4.78;3.30;;;6.30;84.30;;;;;;5091303;28;20035;-73
2020/12/31 01:44:15;;;;;;;3.80;3.22;;;6.30;84.40;;;;;;5091256;28;20581;-73
2020/12/31 01:46:45;;;;;;;5.28;3.50;;;6.30;84.40;;;;;;5092582;28;20032;-73
2020/12/31 01:49:13;;;;;;;4.90;3.85;;;6.30;84.40;;;;;;5091069;28;20364;-73
2020/12/31 01:51:41;;;;;;;5.35;4.30;;;6.30;84.40;;;;;;5092415;28;20039;-73
2020/12/31 01:54:07;;;;;;;5.65;4.43;;;6.30;84.40;;;;;;5091102;28;20361;-73
2020/12/31 01:56:35;;;;;;;4.00;3.53;;;6.30;84.40;;;;;;5092417;28;20521;-73
2020/12/31 01:59:01;;;;;;;6.40;3.75;;;6.30;84.40;;;;;;5090980;28;20369;-73
2020/12/31 02:01:28;;;;;;;5.05;3.70;;;6.30;84.50;;;;;;5092296;28;20369;-73
2020/12/31 02:03:56;;;;;;;4.93;3.83;;;6.20;84.40;;;;;;5092162;28;20094;-73
2020/12/31 02:06:23;;;;;;;4.13;3.63;;;6.20;84.40;;;;;;5092186;28;20048;-73
2020/12/31 02:08:50;;;;;;;3.70;3.33;;;6.30;84.50;;;;;;5090856;28;20035;-74
2020/12/31 02:11:17;;;;;;;4.55;3.30;;;6.20;84.40;;;;;;5090632;28;20032;-73
2020/12/31 02:13:44;;;;;;;4.60;3.53;;;6.30;84.50;;;;;;5090562;28;20557;-73
2020/12/31 02:16:14;;;;;;;4.00;3.53;;;6.30;84.40;;;;;;5090650;28;20395;-73
2020/12/31 02:18:50;;;;;;;5.07;4.25;;;6.20;84.40;;;;;;5091885;28;20031;-74
2020/12/31 02:21:22;;;;;;;4.90;4.22;;;6.20;84.40;;;;;;5090588;28;20507;-73
2020/12/31 02:23:48;;;;;;;7.93;4.72;;;6.20;85.00;;;;;;5091918;28;20498;-73
2020/12/31 02:26:14;;;;;;;5.80;4.78;;;6.20;84.40;;;;;;5091836;28;20024;-74
2020/12/31 02:28:39;;;;;;;5.70;5.10;;;6.10;84.40;;;;;;5090520;28;20081;-73
2020/12/31 02:31:05;;;;;;;5.82;5.07;;;6.10;84.40;;;;;;5090438;28;20067;-73
2020/12/31 02:33:32;;;;;;;7.97;6.35;;;6.10;84.60;;;;;;5091755;28;20111;-74
2020/12/31 02:35:57;;;;;;;9.18;6.30;;;6.10;84.70;;;;;;5090404;28;20024;-73
2020/12/31 02:38:23;;;;;;;7.07;5.68;;;6.00;84.70;;;;;;5090389;28;20119;-73
2020/12/31 02:40:49;;;;;;;8.32;6.57;;;6.00;84.80;;;;;;5090156;28;20028;-73
2020/12/31 02:43:14;;;;;;;7.72;6.30;;;6.00;84.80;;;;;;5091594;28;20039;-73
2020/12/31 02:45:40;;;;;;;7.10;5.72;;;6.00;84.90;;;;;;5090133;28;20071;-73
2020/12/31 02:48:06;;;;;;;7.60;6.00;;;6.00;84.90;;;;;;5090156;28;20019;-73
2020/12/31 02:50:31;;;;;;;6.63;5.55;;;6.00;85.00;;;;;;5091496;28;20158;-73
2020/12/31 02:52:57;;;;;;;7.22;5.78;;;6.10;85.10;;;;;;5090095;28;20028;-73
2020/12/31 02:55:23;;;;;;;6.78;5.80;;;6.10;85.10;;;;;;5090863;28;20020;-73
2020/12/31 02:57:48;;;;;;;5.88;5.03;;;6.10;85.10;;;;;;5091479;28;20116;-73
2020/12/31 03:00:14;;;;;;;5.85;5.25;;;6.10;85.10;;;;;;5089995;28;20028;-73
2020/12/31 03:02:39;;;;;;;6.50;5.30;;;6.10;85.10;;;;;;5089794;28;20036;-73
2020/12/31 03:05:05;;;;;;;5.70;5.10;;;6.10;85.10;;;;;;5089709;28;20040;-74
2020/12/31 03:07:31;;;;;;;5.20;4.68;;;6.10;85.20;;;;;;5089902;28;20020;-73
2020/12/31 03:09:56;;;;;;;7.95;4.80;;;6.10;85.20;;;;;;5089991;28;20412;-73
2020/12/31 03:12:22;;;;;;;5.15;4.53;;;6.10;85.20;;;;;;5091492;28;20122;-73
2020/12/31 03:14:47;;;;;;;5.50;4.80;;;6.10;85.20;;;;;;5089784;28;20438;-73
2020/12/31 03:17:13;;;;;;;6.70;5.07;;;6.20;85.20;;;;;;5091081;28;20020;-73
2020/12/31 03:19:39;;;;;;;5.63;5.03;;;6.20;85.20;;;;;;5091200;28;20040;-73
2020/12/31 03:22:04;;;;;;;5.32;4.38;;;6.20;85.20;;;;;;5091085;28;20077;-73
2020/12/31 03:24:30;;;;;;;4.93;4.07;;;6.20;85.20;;;;;;5091260;28;20028;-73
2020/12/31 03:26:55;;;;;;;6.85;4.95;;;6.20;85.20;;;;;;5089771;28;20051;-73
2020/12/31 03:29:21;;;;;;;5.32;4.72;;;6.20;85.20;;;;;;5091026;28;20486;-73
2020/12/31 03:31:46;;;;;;;5.35;4.72;;;6.20;85.20;;;;;;5089680;28;20028;-73
2020/12/31 03:34:12;;;;;;;5.00;4.40;;;6.20;85.10;;;;;;5090944;28;20472;-73
2020/12/31 03:36:38;;;;;;;5.60;4.72;;;6.20;85.10;;;;;;5091185;28;20028;-73
2020/12/31 03:39:03;;;;;;;4.97;4.47;;;6.20;85.20;;;;;;5089601;28;20074;-73
2020/12/31 03:41:29;;;;;;;5.00;4.43;;;6.20;85.00;;;;;;5089601;28;20035;-73
2020/12/31 03:43:54;;;;;;;4.82;4.32;;;6.20;85.10;;;;;;5089399;28;20039;-74
2020/12/31 03:46:20;;;;;;;5.47;4.40;;;6.20;85.10;;;;;;5090954;28;20032;-73
2020/12/31 03:48:46;;;;;;;5.45;4.30;;;6.20;85.20;;;;;;5090818;28;20028;-73
2020/12/31 03:51:11;;;;;;;4.80;4.30;;;6.20;85.20;;;;;;5089559;28;20131;-74
2020/12/31 03:53:37;;;;;;;4.80;4.10;;;6.20;85.20;;;;;;5089483;28;20452;-73
2020/12/31 03:56:03;;;;;;;4.50;4.07;;;6.20;85.10;;;;;;5089306;28;20039;-73
2020/12/31 03:58:28;;;;;;;5.20;3.58;;;6.20;85.20;;;;;;5089435;28;20134;-73
2020/12/31 04:00:54;;;;;;;5.05;4.55;;;6.20;85.10;;;;;;5090573;28;20466;-73
2020/12/31 04:03:19;;;;;;;5.40;4.05;;;6.20;85.00;;;;;;5090710;28;20391;-73
2020/12/31 04:05:45;;;;;;;4.53;3.97;;;6.20;85.00;;;;;;5089259;28;20131;-73
2020/12/31 04:08:11;;;;;;;4.50;3.90;;;6.20;85.00;;;;;;5093102;28;20495;-73
2020/12/31 04:10:36;;;;;;;5.65;3.38;;;6.20;84.90;;;;;;5094511;28;20024;-74
2020/12/31 04:13:02;;;;;;;4.57;3.80;;;6.20;85.00;;;;;;5093074;28;20031;-73
2020/12/31 04:15:27;;;;;;;4.35;3.78;;;6.20;84.90;;;;;;5093172;28;20070;-73
2020/12/31 04:17:53;;;;;;;3.60;3.30;;;6.20;84.70;;;;;;5094482;28;20069;-74
2020/12/31 04:20:19;;;;;;;3.72;3.15;;;6.10;84.60;;;;;;5094492;28;20023;-73
2020/12/31 04:22:44;;;;;;;3.75;3.00;;;6.10;84.80;;;;;;5094102;28;20140;-73
2020/12/31 04:25:10;;;;;;;3.50;3.20;;;6.10;84.80;;;;;;5094248;28;20028;-73
2020/12/31 04:27:35;;;;;;;3.42;3.13;;;6.10;84.80;;;;;;5094175;28;20407;-74
2020/12/31 04:30:02;;;;;;;4.30;3.10;;;6.10;84.80;;;;;;5094129;28;20028;-74
2020/12/31 04:32:27;;;;;;;3.90;3.15;;;6.10;84.80;;;;;;5092607;28;20553;-73
2020/12/31 04:34:53;;;;;;;7.25;3.45;;;6.10;84.80;;;;;;5092547;28;20036;-73
2020/12/31 04:37:18;;;;;;;4.05;3.13;;;6.10;84.80;;;;;;5092601;28;20036;-73
2020/12/31 04:39:44;;;;;;;3.97;3.22;;;6.10;84.60;;;;;;5094011;28;20034;-73
2020/12/31 04:42:10;;;;;;;3.88;3.10;;;6.10;85.20;;;;;;5092306;28;20032;-73
2020/12/31 04:44:37;;;;;;;3.78;3.20;;;6.10;84.60;;;;;;5092347;28;20432;-73
2020/12/31 04:47:04;;;;;;;5.20;3.65;;;6.10;84.60;;;;;;5092322;28;20430;-73
2020/12/31 04:49:43;;;;;;;3.78;3.20;;;6.00;84.50;;;;;;5093797;28;20028;-73
2020/12/31 04:52:09;;;;;;;3.80;3.15;;;6.00;84.50;;;;;;5093713;28;20462;-73
2020/12/31 04:54:39;;;;;;;5.47;3.35;;;6.00;84.60;;;;;;5092681;28;20024;-73
2020/12/31 04:57:06;;;;;;;5.13;3.00;;;6.00;84.60;;;;;;5093680;28;20528;-73
2020/12/31 04:59:32;;;;;;;3.58;3.20;;;6.00;84.60;;;;;;5092051;28;20020;-73
2020/12/31 05:01:57;;;;;;;4.47;3.53;;;6.00;84.60;;;;;;5091921;28;20035;-74
2020/12/31 05:04:23;;;;;;;3.88;3.25;;;6.10;84.70;;;;;;5092015;28;20460;-73
2020/12/31 05:06:52;;;;;;;4.38;3.30;;;6.00;84.50;;;;;;5093510;28;20035;-73
2020/12/31 05:09:20;;;;;;;4.18;3.35;;;6.10;84.50;;;;;;5093340;28;20016;-73
2020/12/31 05:11:48;;;;;;;5.82;3.25;;;6.10;84.60;;;;;;5091837;28;20429;-73
2020/12/31 05:14:26;;;;;;;3.10;2.80;;;6.10;84.60;;;;;;5091888;28;20035;-73
2020/12/31 05:16:53;;;;;;;2.80;2.58;;;6.10;84.50;;;;;;5091495;28;20035;-74
2020/12/31 05:19:25;;;;;;;4.32;3.08;;;6.10;84.50;;;;;;5093101;28;20415;-73
2020/12/31 05:22:14;;;;;;;3.13;2.55;;;6.20;84.60;;;;;;5091610;28;20043;-73
2020/12/31 05:24:42;;;;;;;5.82;3.15;;;6.20;84.60;;;;;;5091494;28;20032;-73
2020/12/31 05:27:25;;;;;;;4.15;2.83;;;6.10;84.50;;;;;;5091516;28;20032;-74
2020/12/31 05:30:05;;;;;;;4.25;3.10;;;6.20;84.50;;;;;;5092925;28;20051;-73
2020/12/31 05:32:33;;;;;;;3.55;3.00;;;6.20;84.50;;;;;;5092729;28;20028;-73
2020/12/31 05:34:59;;;;;;;3.83;2.97;;;6.20;84.50;;;;;;5092614;28;20035;-73
2020/12/31 05:37:27;;;;;;;2.97;2.40;;;6.10;84.40;;;;;;5091541;28;20024;-73
2020/12/31 05:40:07;;;;;;;3.28;2.80;;;6.10;84.50;;;;;;5091302;28;20028;-73
2020/12/31 05:42:34;;;;;;;3.47;2.75;;;6.10;84.40;;;;;;5091144;28;20429;-73
2020/12/31 05:45:12;;;;;;;3.78;2.78;;;6.10;84.40;;;;;;5092633;28;20024;-73
2020/12/31 05:47:49;;;;;;;3.22;2.22;;;6.10;84.40;;;;;;5091439;28;20024;-73
2020/12/31 05:50:34;;;;;;;3.78;2.35;;;6.10;84.40;;;;;;5091293;28;20488;-73
2020/12/31 05:52:59;;;;;;;2.83;2.53;;;6.10;84.40;;;;;;5092377;28;20489;-73
2020/12/31 05:55:26;;;;;;;2.90;2.60;;;6.10;84.40;;;;;;5091017;28;20020;-73
2020/12/31 05:57:53;;;;;;;2.83;2.60;;;6.00;84.30;;;;;;5092377;28;20030;-73
2020/12/31 06:00:24;;;;;;;2.97;2.67;;;6.00;84.30;;;;;;5090934;28;20047;-72
2020/12/31 06:02:55;;;;;;;2.50;2.30;;;6.10;84.20;;;;;;5090833;28;20399;-73
2020/12/31 06:05:22;;;;;;;2.83;2.15;;;6.10;84.20;;;;;;5092170;28;20384;-73
2020/12/31 06:07:50;;;;;;;2.67;2.03;;;6.00;84.10;;;;;;5090855;28;20364;-73
2020/12/31 06:10:24;;;;;;;3.65;2.22;;;6.00;84.10;;;;;;5092297;28;20019;-73
2020/12/31 06:12:59;;;;;;;2.20;2.00;;;6.00;84.00;;;;;;5090752;28;20024;-73
2020/12/31 06:15:34;;;;;;;3.05;2.40;;;6.00;84.10;;;;;;5090699;28;20032;-74
2020/12/31 06:18:02;;;;;;;2.53;2.10;;;6.00;84.00;;;;;;5090568;28;20109;-73
2020/12/31 06:20:38;;;;;;;2.78;2.10;;;6.00;84.00;;;;;;5090417;28;20448;-73
2020/12/31 06:23:09;;;;;;;3.03;2.72;;;6.00;84.00;;;;;;5092282;28;20012;-73
2020/12/31 06:25:48;;;;;;;2.75;2.20;;;6.00;84.00;;;;;;5090370;28;20016;-73
2020/12/31 06:28:16;;;;;;;3.72;2.45;;;5.90;84.00;;;;;;5090126;28;20023;-74
2020/12/31 06:30:47;;;;;;;3.10;2.40;;;5.90;84.60;;;;;;5089954;28;20034;-73
2020/12/31 06:33:17;;;;;;;5.43;3.17;;;5.90;84.00;;;;;;5090320;28;20024;-73
2020/12/31 06:35:49;;;;;;;3.65;2.55;;;5.90;84.10;;;;;;5092010;28;20028;-73
2020/12/31 06:38:16;;;;;;;3.60;2.75;;;5.90;84.10;;;;;;5090280;28;20027;-73
2020/12/31 06:40:42;;;;;;;3.15;2.63;;;5.90;84.10;;;;;;5090207;28;20051;-73
2020/12/31 06:43:14;;;;;;;3.72;2.50;;;5.90;84.10;;;;;;5090242;28;20058;-73
2020/12/31 06:45:47;;;;;;;4.60;2.65;;;5.90;84.00;;;;;;5090227;28;20459;-72
2020/12/31 06:48:25;;;;;;;3.53;2.30;;;5.90;84.00;;;;;;5090262;28;20034;-73
2020/12/31 06:51:12;;;;;;;3.47;2.20;;;5.90;84.00;;;;;;5090078;28;20044;-73
2020/12/31 06:53:45;;;;;;;5.50;2.50;;;6.00;83.90;;;;;;5091374;28;20075;-73
2020/12/31 06:56:11;;;;;;;;;;;6.00;83.90;;;;;;5090379;28;20024;-73
2020/12/31 06:58:38;;;;;;;2.60;2.10;;;6.00;83.80;;;;;;5091243;28;19910;-73
2020/12/31 07:01:23;;;;;;;2.63;2.35;;;5.90;83.90;;;;;;5091366;28;20111;-73
2020/12/31 07:03:50;;;;;;;3.75;2.10;;;5.90;83.80;;;;;;5091037;28;20044;-73
2020/12/31 07:06:21;;;;;;;4.53;2.25;;;5.90;83.80;;;;;;5091374;28;20099;-73
2020/12/31 07:08:48;;;;;;;3.20;2.22;;;5.80;83.60;;;;;;5091320;28;20042;-73
2020/12/31 07:11:13;;;;;;;5.65;2.10;;;5.90;83.70;;;;;;5089817;28;20021;-73
2020/12/31 07:13:40;;;;;;;2.20;2.05;;;5.80;83.60;;;;;;5089859;28;20028;-73
2020/12/31 07:16:06;;;;;;;1.95;1.73;;;5.90;83.70;;;;;;5089985;28;20022;-74
2020/12/31 07:18:32;;;;;;;3.17;2.00;;;5.90;83.60;;;;;;5089851;28;20032;-73
2020/12/31 07:20:59;;;;;;;2.35;1.90;;;5.90;83.70;;;;;;5090027;28;20309;-73
2020/12/31 07:23:38;;;;;;;2.90;2.00;;;5.80;83.50;;;;;;5089721;28;20078;-73
2020/12/31 07:26:04;;;;;;;2.35;2.00;;;5.90;83.50;;;;;;5091136;28;20027;-73
2020/12/31 07:28:30;;;;;;;2.70;2.50;;;5.90;83.50;;;;;;5089729;28;20016;-72
2020/12/31 07:30:56;;;;;;;2.45;2.25;;;5.90;83.40;;;;;;5089549;28;20032;-73
2020/12/31 07:33:42;;;;;;;3.05;2.33;;;5.90;83.30;;;;;;5091033;28;20054;-73
2020/12/31 07:36:14;;;;;;;3.30;2.83;;;5.90;83.40;;;;;;5090658;28;20040;-73
2020/12/31 07:38:40;;;;;;;4.03;2.85;;;5.90;83.50;;;;;;5089665;28;20031;-73
2020/12/31 07:41:11;;;;;;;2.60;2.15;;;5.90;83.50;;;;;;5091935;28;20020;-73
2020/12/31 07:43:37;;;;;;;3.53;2.35;;;5.90;83.50;;;;;;5094907;28;20065;-72
2020/12/31 07:46:03;;;;;;;2.17;1.98;;;5.90;83.50;;;;;;5094932;28;20024;-74
2020/12/31 07:48:31;;;;;;;2.80;1.98;;;5.90;83.50;;;;;;5093506;28;20028;-73
2020/12/31 07:50:58;;;;;;;2.55;1.88;;;5.90;83.40;;;;;;5094816;28;20024;-73
2020/12/31 07:53:25;;;;;;;2.70;1.90;;;5.90;83.50;;;;;;5094638;28;20060;-73
2020/12/31 07:55:53;;;;;;;1.45;1.35;;;5.90;83.40;;;;;;5094751;28;20030;-73
2020/12/31 07:58:29;;;;;;;1.85;1.63;;;5.90;83.40;;;;;;5094738;28;20483;-72
2020/12/31 08:01:03;;;;;;;2.00;1.60;;;5.80;83.40;;;;;;5093207;28;20024;-72
2020/12/31 08:03:29;;;;;;;4.00;1.48;;;5.80;83.40;;;;;;5093066;28;20039;-73
2020/12/31 08:05:59;;;;;;;1.63;1.50;;;5.80;83.40;;;;;;5092960;28;20016;-72
2020/12/31 08:08:25;;;;;;;2.15;1.70;;;5.80;83.40;;;;;;5093011;28;20080;-73
2020/12/31 08:10:51;;;;;;;2.28;1.67;;;5.90;83.40;;;;;;5092916;28;20028;-73
2020/12/31 08:13:17;;;;;;;2.35;1.58;;;5.90;83.40;;;;;;5094357;28;20031;-73
2020/12/31 08:15:54;;;;;;;1.38;1.27;;;5.90;83.30;;;;;;5092682;28;20027;-73
2020/12/31 08:18:21;;;;;;;2.28;1.48;;;5.80;83.20;;;;;;5092734;28;20021;-72
2020/12/31 08:20:49;;;;;;;1.58;1.48;;;5.90;83.30;;;;;;5093966;28;20479;-73
2020/12/31 08:23:27;;;;;;;3.03;1.77;;;5.90;83.30;;;;;;5094005;28;20067;-72
2020/12/31 08:25:56;;;;;;;2.85;1.70;;;5.90;83.20;;;;;;5094193;28;20016;-73
2020/12/31 08:28:22;;;;;;;1.63;1.42;;;5.90;83.20;;;;;;5093152;28;20019;-72
2020/12/31 08:30:48;;;;;;;2.17;1.48;;;6.00;83.20;;;;;;5092616;28;20012;-72
2020/12/31 08:33:24;;;;;;;2.83;1.40;;;5.90;83.10;;;;;;5093010;28;20437;-72
2020/12/31 08:35:50;;;;;;;1.75;1.52;;;5.90;83.10;;;;;;5094081;28;20016;-72
2020/12/31 08:38:21;;;;;;;2.50;1.48;;;5.90;83.10;;;;;;5092778;28;20027;-72
2020/12/31 08:40:58;;;;;;;1.73;1.55;;;5.90;83.10;;;;;;5092542;28;20043;-73
2020/12/31 08:43:37;;;;;;;2.25;1.50;;;5.90;83.20;;;;;;5092664;28;20489;-73
2020/12/31 08:46:23;;;;;;;3.15;1.40;;;5.90;83.20;;;;;;5093995;28;20051;-73
2020/12/31 08:48:56;;;;;;;3.28;1.60;;;5.90;83.10;;;;;;5091996;28;20039;-73
2020/12/31 08:51:27;;;;;;;1.83;1.30;;;5.90;83.10;;;;;;5092010;28;20161;-73
2020/12/31 08:53:54;;;;;;;2.95;1.80;;;5.90;83.00;;;;;;5092205;28;20360;-73
2020/12/31 08:56:22;;;;;;;4.43;1.88;;;5.90;83.00;;;;;;5092388;28;20031;-73
2020/12/31 08:58:47;;;;;;;1.77;1.67;;;5.90;83.10;;;;;;5093672;28;20432;-73
2020/12/31 09:01:28;;;;;;;2.30;2.00;;;5.90;83.00;;;;;;5093628;28;20034;-73
2020/12/31 09:04:09;;;;;;;2.38;1.92;;;5.90;83.10;;;;;;5091900;28;20067;-73
2020/12/31 09:06:37;;;;;;;2.78;1.60;;;5.80;83.10;;;;;;5093421;28;20482;-73
2020/12/31 09:09:03;;;;;;;1.95;1.67;;;5.80;83.10;;;;;;5091854;28;20032;-73
2020/12/31 09:11:29;;;;;;;2.40;1.98;;;5.80;83.20;;;;;;5091957;28;20501;-73
2020/12/31 09:14:06;;;;;;;2.65;1.83;;;5.80;83.10;;;;;;5093163;28;20107;-73
2020/12/31 09:16:31;;;;;;;1.98;1.80;;;5.80;83.20;;;;;;5093262;28;20131;-73
2020/12/31 09:19:00;;;;;;;2.13;1.45;;;5.80;83.10;;;;;;5093195;28;20135;-73
2020/12/31 09:21:30;;;;;;;1.70;1.60;;;5.80;83.10;;;;;;5091712;28;20039;-73
2020/12/31 09:24:14;;;;;;;1.88;1.77;;;5.80;83.10;;;;;;5093079;28;20036;-73
2020/12/31 09:26:50;;;;;;;3.95;2.55;;;5.80;83.20;;;;;;5091403;28;20062;-73
2020/12/31 09:29:15;;;;;;;4.95;2.97;;;5.90;83.20;;;;;;5091460;28;20024;-74
2020/12/31 09:31:41;;;;;;;2.65;1.95;;;5.90;83.10;;;;;;5091500;28;20421;-73
2020/12/31 09:34:06;;;;;;;1.70;1.60;;;6.00;83.10;;;;;;5091377;28;20032;-74
2020/12/31 09:36:32;;;;;;;2.10;1.90;;;6.00;83.10;;;;;;5091422;28;20028;-73
2020/12/31 09:38:57;;;;;;;2.15;1.55;;;6.10;83.00;;;;;;5092790;28;20349;-73
2020/12/31 09:41:23;;;;;;;1.63;1.45;;;6.10;83.00;;;;;;5092704;28;20471;-72
2020/12/31 09:43:50;;;;;;;1.60;1.40;;;6.10;82.80;;;;;;5091246;28;20028;-73
2020/12/31 09:46:19;;;;;;;1.77;1.63;;;6.10;82.70;;;;;;5092859;28;20046;-73
2020/12/31 09:48:46;;;;;;;2.00;1.90;;;6.10;82.70;;;;;;5092752;28;20111;-74
2020/12/31 09:51:12;;;;;;;1.88;1.60;;;6.10;82.70;;;;;;5091372;28;20024;-73
2020/12/31 09:53:38;;;;;;;2.50;1.92;;;6.10;82.80;;;;;;5091125;28;20506;-73
2020/12/31 09:56:04;;;;;;;2.65;2.10;;;6.10;82.90;;;;;;5092647;28;20032;-73
2020/12/31 09:58:29;;;;;;;1.77;1.58;;;6.00;82.80;;;;;;5091138;28;20024;-73
2020/12/31 10:00:55;;;;;;;3.15;2.08;;;6.00;82.80;;;;;;5090965;28;20028;-73
2020/12/31 10:03:21;;;;;;;2.75;1.80;;;6.00;82.90;;;;;;5092412;28;20189;-73
2020/12/31 10:05:46;;;;;;;2.95;2.65;;;6.00;82.90;;;;;;5090913;28;20051;-73
2020/12/31 10:08:15;;;;;;;7.05;3.30;;;6.00;82.90;;;;;;5092253;28;20098;-73
2020/12/31 10:10:40;;;;;;;2.83;2.25;;;6.00;82.90;;;;;;5090879;28;20089;-73
2020/12/31 10:13:06;;;;;;;2.92;2.40;;;6.10;82.90;;;;;;5090850;28;20436;-73
2020/12/31 10:15:32;;;;;;;3.65;2.63;;;6.10;82.80;;;;;;5090995;28;20111;-73
2020/12/31 10:17:59;;;;;;;3.10;2.58;;;6.10;82.80;;;;;;5092025;28;20032;-76
2020/12/31 10:20:25;;;;;;;3.63;3.03;;;6.10;82.70;;;;;;5090882;28;20054;-73
2020/12/31 10:22:50;;;;;;;4.38;2.85;;;6.20;82.70;;;;;;5090750;28;20024;-73
2020/12/31 10:25:16;;;;;;;7.15;2.67;;;6.20;82.70;;;;;;5090712;28;20100;-73
2020/12/31 10:27:42;;;;;;;3.92;2.90;;;6.20;82.50;;;;;;5090701;28;20126;-73
2020/12/31 10:30:07;;;;;;;5.25;3.72;;;6.20;82.50;;;;;;5092202;28;20096;-73
2020/12/31 10:32:33;;;;;;;2.40;2.20;;;6.20;82.50;;;;;;5087828;28;20466;-72
2020/12/31 10:34:59;;;;;;;2.50;2.30;;;6.20;82.50;;;;;;5090367;28;20362;-74
2020/12/31 10:37:24;;;;;;;2.60;1.95;;;6.20;82.50;;;;;;5090444;28;20463;-74
2020/12/31 10:39:50;;;;;;;2.50;2.20;;;6.20;82.40;;;;;;5091539;28;20035;-74
2020/12/31 10:42:15;;;;;;;3.10;1.98;;;6.30;82.40;;;;;;5091538;28;20031;-74
2020/12/31 10:44:41;;;;;;;2.40;2.20;;;6.30;82.40;;;;;;5090276;28;20064;-74
2020/12/31 10:47:06;;;;;;;2.20;2.00;;;6.40;82.30;;;;;;5091718;28;20047;-74
2020/12/31 10:49:32;;;;;;;2.38;1.83;;;6.40;82.30;;;;;;5091660;28;20468;-75
2020/12/31 10:51:58;;;;;;;3.45;2.28;;;6.40;82.10;;;;;;5089969;28;20032;-74
2020/12/31 10:54:23;;;;;;;4.07;3.17;;;6.40;82.10;;;;;;5090235;28;20370;-74
2020/12/31 10:56:49;;;;;;;3.38;2.50;;;6.50;82.10;;;;;;5091517;28;20031;-74
2020/12/31 10:59:15;;;;;;;3.25;2.50;;;6.50;82.10;;;;;;5090369;28;20066;-74
2020/12/31 11:01:41;;;;;;;2.50;2.30;;;6.50;82.00;;;;;;5089983;28;20031;-75
2020/12/31 11:04:07;;;;;;;4.40;2.78;;;6.50;82.00;;;;;;5091185;28;20040;-74
2020/12/31 11:06:33;;;;;;;2.63;2.40;;;6.50;81.80;;;;;;5091455;28;20026;-74
2020/12/31 11:08:58;;;;;;;3.30;2.88;;;6.50;81.80;;;;;;5089987;28;20028;-74
2020/12/31 11:11:26;;;;;;;5.57;2.90;;;6.60;81.80;;;;;;5090185;28;20020;-74
2020/12/31 11:13:53;;;;;;;3.42;2.80;;;6.60;81.70;;;;;;5090145;28;20030;-74
2020/12/31 11:16:19;;;;;;;2.75;2.55;;;6.60;81.70;;;;;;5090165;28;20024;-74
2020/12/31 11:18:45;;;;;;;3.45;3.15;;;6.60;81.80;;;;;;5091355;28;20069;-74
2020/12/31 11:21:14;;;;;;;4.60;3.47;;;6.60;81.60;;;;;;5090182;28;20016;-74
2020/12/31 11:23:40;;;;;;;3.40;3.10;;;6.60;81.70;;;;;;5091166;28;20468;-74
2020/12/31 11:26:13;;;;;;;3.40;3.10;;;6.60;81.60;;;;;;5091462;28;20019;-74
2020/12/31 11:28:39;;;;;;;3.03;2.72;;;6.70;81.60;;;;;;5091220;28;20020;-74
2020/12/31 11:31:06;;;;;;;3.30;2.88;;;6.70;81.40;;;;;;5089819;28;20028;-74
2020/12/31 11:33:32;;;;;;;3.50;2.90;;;6.80;81.40;;;;;;5091103;28;20079;-74
2020/12/31 11:35:58;;;;;;;3.97;2.75;;;6.90;81.40;;;;;;5091153;28;20058;-74
2020/12/31 11:38:25;;;;;;;2.85;2.15;;;6.90;81.20;;;;;;5089572;28;20047;-74
2020/12/31 11:40:51;;;;;;;3.30;3.00;;;7.00;81.30;;;;;;5090937;28;20032;-74
2020/12/31 11:43:16;;;;;;;3.03;2.72;;;7.00;81.20;;;;;;5089852;28;20329;-74
2020/12/31 11:45:42;;;;;;;3.40;3.10;;;7.10;81.00;;;;;;5089567;28;20047;-74
2020/12/31 11:48:07;;;;;;;3.75;3.10;;;7.10;80.70;;;;;;5090691;28;20012;-74
2020/12/31 11:50:33;;;;;;;4.28;3.33;;;7.10;80.70;;;;;;5091736;28;20095;-74
2020/12/31 11:52:59;;;;;;;5.32;4.18;;;7.20;80.70;;;;;;5089551;28;20027;-74
2020/12/31 11:55:25;;;;;;;4.93;3.83;;;7.20;80.60;;;;;;5091782;28;20105;-74
2020/12/31 11:57:50;;;;;;;3.83;2.97;;;7.20;80.60;;;;;;5090683;28;20566;-74
2020/12/31 12:00:16;;;;;;;5.50;3.50;;;7.30;80.60;;;;;;5090648;28;20024;-74
2020/12/31 12:02:43;;;;;;;3.30;3.00;;;7.30;80.40;;;;;;5090764;28;20384;-74
2020/12/31 12:05:09;;;;;;;5.45;4.22;;;7.30;80.40;;;;;;5090790;28;20337;-74
2020/12/31 12:08:12;;;;;;;5.22;3.80;;;7.30;80.40;;;;;;5092043;28;20024;-74
2020/12/31 12:10:37;;;;;;;3.97;3.30;;;7.40;80.40;;;;;;5091837;28;20028;-75
2020/12/31 12:13:03;;;;;;;4.20;3.63;;;7.40;80.40;;;;;;5091900;28;20031;-74
2020/12/31 12:15:28;;;;;;;7.25;5.15;;;7.40;80.30;;;;;;5092000;28;20111;-73
2020/12/31 12:17:54;;;;;;;4.00;3.28;;;7.30;80.20;;;;;;5091645;28;20089;-74
2020/12/31 12:20:20;;;;;;;6.28;3.47;;;7.30;80.20;;;;;;5090625;28;20379;-73
2020/12/31 12:22:46;;;;;;;4.28;3.17;;;7.30;80.30;;;;;;5091722;28;20020;-74
2020/12/31 12:25:12;;;;;;;3.10;2.70;;;7.20;80.20;;;;;;5090501;28;20440;-74
2020/12/31 12:27:38;;;;;;;2.85;2.55;;;7.20;80.40;;;;;;5091762;28;20072;-74
2020/12/31 12:30:07;;;;;;;2.58;2.38;;;7.20;80.50;;;;;;5093957;28;20020;-74
2020/12/31 12:32:33;;;;;;;3.42;2.65;;;7.20;80.40;;;;;;5095257;28;20020;-74
2020/12/31 12:34:59;;;;;;;3.78;2.33;;;7.10;80.40;;;;;;5094426;28;20032;-73
2020/12/31 12:37:25;;;;;;;2.75;2.47;;;7.10;80.30;;;;;;5093778;28;20165;-74
2020/12/31 12:39:50;;;;;;;2.70;2.20;;;7.10;80.10;;;;;;5095024;28;20112;-73
2020/12/31 12:42:16;;;;;;;2.85;2.20;;;7.00;80.20;;;;;;5093476;28;20036;-73
2020/12/31 12:44:42;;;;;;;2.78;2.35;;;6.90;80.20;;;;;;5095040;28;20467;-73
2020/12/31 12:47:07;;;;;;;2.22;2.03;;;6.90;80.80;;;;;;5093592;28;20472;-73
2020/12/31 12:49:33;;;;;;;2.50;2.30;;;6.90;80.20;;;;;;5094745;28;20101;-73
2020/12/31 12:52:02;;;;;;;5.35;2.63;;;6.90;80.20;;;;;;5093372;28;20062;-74
2020/12/31 12:54:27;;;;;;;4.03;2.65;;;6.90;80.00;;;;;;5093478;28;20032;-74
2020/12/31 12:56:53;;;;;;;3.67;3.15;;;6.90;80.00;;;;;;5093407;28;20525;-73
2020/12/31 12:59:19;;;;;;;3.30;3.00;;;6.90;80.00;;;;;;5094713;28;20028;-73
2020/12/31 13:01:45;;;;;;;5.20;3.53;;;6.80;80.00;;;;;;5093010;28;20439;-73